Centennial Heights, Michigan
Current Conditions -  °F | °C
As of 2:53 AM on Tuesday 21 Oct 2014 (Local Time) from KCMX Reporting Station
Overcast Overcast  
Wind Chill: 33°   Ceiling: 1300
Heat Index: 39°   Visibility: 10mi
Dew Point: 32°   Wind: 8mph
Humidity: 76%   Direction: 30°NNE
Pressure: 30.13"   Gusts: NA
Location:  47.2401°N, 88.4308°W
Report Text: KCMX 210653Z AUTO 03007KT 10SM OVC013 04/00 A3013 RMK AO2 SLP214 T00390000
Loading
Personal Weather Stations






























Interactive Weather Map
Tropical Storm Tracking
New forecast layout! Learn more

10-Day Weather Forecast

Advertisements
Track Severe Weather on mobile